Palo Alto, CA

6:35 PM PDT on October 01, 2014 (GMT -0700)
Palo Alto Of Santa Clara County | Change Station
CLOSE
Current Station
Airport
Location: Palo Alto,
Elevation: 2 m
Nearby Weather Stations
Active Advisory: Heat Advisory

Elev 2 m 37.46 °N, 122.12 °W | Updated 48 minutes ago

Clear
Clear
27 °C
Feels Like 27 °C
N
18
Wind Variable Wind from NNW

Today
High -- | Low -- °C
--% Chance of Precip.
Yesterday
High -- | Low -- °C
Precip. -- mm
7:04 AM 6:51 PM
First Quarter, 53% visible
Pressure 1011 hPa
Visibility 48.3 kilometers
Clouds Clear
Dew Point 11 °C
Humidity 37%
Rainfall 0.0 mm
Snow Depth 0 in , 0 in , 0 in
UV 1 out of 12
Pollen 3.60 out of 12
Ozone Good
PM2.5 Good
Flu Activity Not available.
METAR KPAO 020047Z 33010KT 30SM SKC 27/11 A2986

More Conditions Fewer Conditions

Pressure 1011 hPa
Visibility 48.3 kilometers
Clouds Clear
Dew Point 11 °C
Humidity 37%
Rainfall 0.0 mm
Snow Depth 0 in , 0 in , 0 in
UV 1 out of 12
Pollen 3.60 out of 12
Ozone Good
PM2.5 Good
Flu Activity Not available.
METAR KPAO 020047Z 33010KT 30SM SKC 27/11 A2986

More Conditions Fewer Conditions

10-Day Weather Forecast

Almanac

Astronomy

Oct. 01, 2014 Rise Set
Actual Time 7:04 AM PDT 6:51 PM PDT
Civil Twilight 6:37 AM PDT 7:17 PM PDT
Nautical Twilight 6:07 AM PDT 7:47 PM PDT
Astronomical Twilight 5:37 AM PDT 8:18 PM PDT
Moon 2:04 PM PDT (10/1) No Moon Set
Length of Visible Light 12h 39m
Length of Day
11h 47m
Tomorrow will be 2m 24s shorter.
First Quarter, 53% of the Moon is Illuminated
Today
First Quarter
Oct 8
Full
Oct 15
Last Quarter
Oct 23
New
Oct 30
First Quarter

Today's Extremes

State Highs State Lows

Community

WunderPhotos

Upload Photos

1,758,112 photos uploaded!

WunderBlogs® & News

Nearby

Air Quality

  Air Quality AQ Index Pollutant
Yesterday Good
PM2.5
Yesterday Good
OZONE
Current Good
OZONE
Current Good
PM2.5
Wednesday Good
PM2.5
Thursday Moderate
OZONE
Friday Moderate
NO2
Saturday Moderate
PM2.5
Sunday Moderate
PM2.5
Monday Moderate
PM2.5

Snow Depth

Station Depth Elevation
Tahoe City Cross 0 in 6750 ft
Spratt Creek 0 in 6200 ft
Adin Mountain 0 in 6200 ft
Summit Meadow 0 in 9122 ft
Rubicon #2 0 in 7500 ft

Earthquake Activity

City Distance Mag. Time & Date
South Dos Palos, California 145 kilometers 3.0 11:17 AM PDT
2014-10-01
Shandon, California 244 kilometers 2.9 5:34 PM PDT
2014-09-30
East Foothills, California 29 kilometers 2.6 3:34 PM PDT
2014-09-30
South Dos Palos, California 146 kilometers 2.7 3:08 PM PDT
2014-09-30
Minimum magnitude displayed is 2.5.

Coastal Water Temperatures

Place Temperature
No Stations Reporting

Nearby Weather Stations